createdAt,value
2023-01-19T00:00:35.310Z,-0.85
2023-01-19T00:03:04.545Z,-0.77
2023-01-19T00:05:31.410Z,-0.83
2023-01-19T00:08:14.866Z,-0.64
2023-01-19T00:10:51.468Z,-0.59
2023-01-19T00:13:18.824Z,-0.76
2023-01-19T00:15:46.090Z,-0.48
2023-01-19T00:18:13.134Z,-0.43
2023-01-19T00:20:40.949Z,-0.43
2023-01-19T00:23:08.456Z,-0.36
2023-01-19T00:25:36.098Z,-0.47
2023-01-19T00:28:03.178Z,-0.37
2023-01-19T00:30:30.219Z,-0.33
2023-01-19T00:32:57.311Z,-0.36
2023-01-19T00:35:24.373Z,-0.33
2023-01-19T00:37:51.424Z,-0.38
2023-01-19T00:40:18.563Z,-0.48
2023-01-19T00:42:48.475Z,-0.41
2023-01-19T00:45:21.488Z,-0.38
2023-01-19T00:47:50.535Z,-0.36
2023-01-19T00:50:17.685Z,-0.42
2023-01-19T00:52:45.497Z,-0.39
2023-01-19T00:55:15.844Z,-0.48
2023-01-19T00:57:43.405Z,-0.40
2023-01-19T01:00:14.519Z,-0.26
2023-01-19T01:02:43.140Z,-0.40
2023-01-19T01:05:10.932Z,-0.25
2023-01-19T01:07:41.300Z,-0.24
2023-01-19T01:10:09.411Z,-0.26
2023-01-19T01:12:37.262Z,-0.34
2023-01-19T01:15:05.633Z,-0.34
2023-01-19T01:17:32.481Z,-0.40
2023-01-19T01:19:59.436Z,-0.25
2023-01-19T01:22:26.448Z,-0.20
2023-01-19T01:24:53.492Z,-0.22
2023-01-19T01:27:20.272Z,-0.23
2023-01-19T01:29:47.199Z,-0.11
2023-01-19T01:32:15.604Z,-0.25
2023-01-19T01:34:42.585Z,-0.11
2023-01-19T01:37:09.344Z,-0.08
2023-01-19T01:39:36.767Z,-0.09
2023-01-19T01:42:11.104Z,-0.06
2023-01-19T01:44:56.528Z,-0.17
2023-01-19T01:47:32.453Z,-0.06
2023-01-19T01:50:32.927Z,-0.07
2023-01-19T01:53:07.298Z,-0.11
2023-01-19T01:55:38.448Z,-0.34
2023-01-19T01:58:07.760Z,-0.13
2023-01-19T02:00:54.807Z,-0.36
2023-01-19T02:03:24.415Z,-0.06
2023-01-19T02:05:53.801Z,-0.06
2023-01-19T02:09:02.433Z,-0.13
2023-01-19T02:11:49.951Z,-0.19
2023-01-19T02:14:16.793Z,-0.13
2023-01-19T02:16:43.781Z,-0.37
2023-01-19T02:19:16.710Z,-0.17
2023-01-19T02:22:22.261Z,-0.06
2023-01-19T02:24:50.285Z,-0.24
2023-01-19T02:27:17.794Z,-0.09
2023-01-19T02:29:44.961Z,-0.15
2023-01-19T02:32:12.060Z,-0.20
2023-01-19T02:34:39.027Z,-0.07
2023-01-19T02:37:13.506Z,-0.06
2023-01-19T02:39:47.700Z,-0.13
2023-01-19T02:42:32.430Z,-0.20
2023-01-19T02:44:59.843Z,-0.11
2023-01-19T02:47:26.728Z,-0.06
2023-01-19T02:50:01.020Z,-0.04
2023-01-19T02:52:28.450Z,-0.07
2023-01-19T02:55:01.854Z,0.02
2023-01-19T02:57:57.952Z,0.04
2023-01-19T03:00:43.378Z,0.04
2023-01-19T03:03:27.338Z,0.06
2023-01-19T03:06:03.702Z,-0.04
2023-01-19T03:08:42.901Z,-0.05
2023-01-19T03:11:13.372Z,0.08
2023-01-19T03:13:40.027Z,0.04
2023-01-19T03:16:21.831Z,0.08
2023-01-19T03:18:56.759Z,0.08
2023-01-19T03:21:27.662Z,0.11
2023-01-19T03:24:00.163Z,0.11
2023-01-19T03:26:31.227Z,0.07
2023-01-19T03:29:02.420Z,-0.21
2023-01-19T03:31:32.845Z,0.05
2023-01-19T03:34:06.791Z,0.16
2023-01-19T03:36:41.029Z,0.17
2023-01-19T03:39:10.357Z,0.18
2023-01-19T03:41:41.477Z,0.08
2023-01-19T03:44:09.348Z,0.16
2023-01-19T03:46:36.300Z,0.07
2023-01-19T03:49:03.139Z,0.20
2023-01-19T03:51:30.280Z,0.20
2023-01-19T03:53:57.050Z,0.22
2023-01-19T03:56:25.739Z,0.08
2023-01-19T03:58:52.787Z,0.22
2023-01-19T04:01:23.629Z,0.02
2023-01-19T04:03:51.488Z,0.18
2023-01-19T04:06:19.596Z,0.17
2023-01-19T04:08:49.244Z,0.24
2023-01-19T04:11:16.777Z,0.17
2023-01-19T04:13:43.989Z,0.08
2023-01-19T04:16:11.939Z,0.23
2023-01-19T04:18:38.878Z,0.30
2023-01-19T04:21:07.687Z,0.25
2023-01-19T04:23:35.232Z,0.29
2023-01-19T04:26:04.597Z,0.31
2023-01-19T04:28:32.631Z,0.31
2023-01-19T04:30:59.511Z,0.37
2023-01-19T04:33:27.655Z,0.37
2023-01-19T04:35:56.185Z,0.39
2023-01-19T04:38:26.754Z,0.30
2023-01-19T04:40:55.115Z,0.09
2023-01-19T04:43:22.855Z,0.46
2023-01-19T04:45:51.127Z,0.40
2023-01-19T04:48:19.053Z,0.21
2023-01-19T04:50:46.764Z,0.46
2023-01-19T04:53:13.993Z,0.29
2023-01-19T04:55:41.195Z,0.36
2023-01-19T04:58:08.248Z,0.25
2023-01-19T05:00:35.101Z,0.39
2023-01-19T05:03:02.929Z,0.53
2023-01-19T05:05:30.319Z,0.49
2023-01-19T05:07:57.110Z,0.57
2023-01-19T05:10:24.078Z,0.55
2023-01-19T05:12:51.454Z,0.18
2023-01-19T05:15:18.505Z,0.58
2023-01-19T05:17:46.392Z,0.37
2023-01-19T05:20:16.355Z,0.38
2023-01-19T05:22:49.027Z,0.55
2023-01-19T05:25:15.918Z,0.52
2023-01-19T05:27:43.222Z,0.53
2023-01-19T05:30:10.774Z,0.55
2023-01-19T05:32:37.637Z,0.15
2023-01-19T05:35:04.623Z,0.49
2023-01-19T05:37:32.964Z,0.31
2023-01-19T05:39:59.790Z,0.38
2023-01-19T05:42:26.521Z,0.40
2023-01-19T05:44:53.264Z,0.34
2023-01-19T05:47:19.980Z,0.34
2023-01-19T05:49:46.890Z,0.31
2023-01-19T05:52:13.915Z,0.06
2023-01-19T05:54:40.954Z,0.29
2023-01-19T05:57:08.017Z,0.24
2023-01-19T05:59:35.379Z,0.18
2023-01-19T06:02:02.187Z,0.17
2023-01-19T06:04:29.005Z,0.07
2023-01-19T06:06:55.791Z,-0.21
2023-01-19T06:09:22.557Z,-0.21
2023-01-19T06:11:49.788Z,-0.24
2023-01-19T06:14:16.648Z,-0.80
2023-01-19T06:16:43.567Z,-0.33
2023-01-19T06:19:13.232Z,-0.62
2023-01-19T06:21:40.065Z,-0.77
2023-01-19T06:24:07.314Z,-0.66
2023-01-19T06:26:34.151Z,-0.72
2023-01-19T06:29:01.033Z,-0.96
2023-01-19T06:31:27.807Z,-0.94
2023-01-19T06:33:54.562Z,-0.84
2023-01-19T06:36:21.416Z,-0.95
2023-01-19T06:38:48.270Z,-0.99
2023-01-19T06:41:15.034Z,-0.94
2023-01-19T06:43:41.872Z,-1.08
2023-01-19T06:46:08.859Z,-1.04
2023-01-19T06:48:35.619Z,-1.05
2023-01-19T06:51:02.652Z,-1.26
2023-01-19T06:53:30.386Z,-1.02
2023-01-19T06:56:02.005Z,-0.76
2023-01-19T06:58:30.240Z,-0.69
2023-01-19T07:01:03.863Z,-0.59
2023-01-19T07:03:30.916Z,-0.60
2023-01-19T07:05:58.028Z,-0.42
2023-01-19T07:08:24.848Z,-0.38
2023-01-19T07:11:25.108Z,-0.36
2023-01-19T07:13:40.074Z,-0.33
2023-01-19T07:16:12.406Z,-0.34
2023-01-19T07:18:40.820Z,-0.35
2023-01-19T07:21:08.339Z,-0.34
2023-01-19T07:23:35.242Z,-0.37
2023-01-19T07:26:02.190Z,-0.50
2023-01-19T07:28:29.796Z,-0.57
2023-01-19T07:30:57.269Z,-0.48
2023-01-19T07:33:25.011Z,-0.64
2023-01-19T07:35:52.723Z,-0.78
2023-01-19T07:38:20.000Z,-0.78
2023-01-19T07:40:47.361Z,-0.78
2023-01-19T07:43:15.073Z,-0.81
2023-01-19T07:45:42.142Z,-0.85
2023-01-19T07:48:08.970Z,-0.93
2023-01-19T07:50:35.733Z,-1.07
2023-01-19T07:53:07.292Z,-1.05
2023-01-19T07:55:34.343Z,-0.81
2023-01-19T07:58:01.168Z,-0.71
2023-01-19T08:00:28.502Z,-0.61
2023-01-19T08:03:00.576Z,-0.43
2023-01-19T08:05:31.445Z,-0.41
2023-01-19T08:07:58.790Z,-0.55
2023-01-19T08:10:27.522Z,-0.51
2023-01-19T08:12:55.708Z,-0.34
2023-01-19T08:15:24.792Z,-0.31
2023-01-19T08:17:57.367Z,-0.16
2023-01-19T08:20:25.193Z,-0.35
2023-01-19T08:23:00.072Z,-0.40
2023-01-19T08:25:33.245Z,-0.27
2023-01-19T08:28:01.078Z,-0.47
2023-01-19T08:30:28.003Z,-0.71
2023-01-19T08:32:58.337Z,-0.73
2023-01-19T08:35:25.475Z,-0.84
2023-01-19T08:37:52.234Z,-1.29
2023-01-19T08:40:19.088Z,-1.39
2023-01-19T08:42:47.704Z,-1.16
2023-01-19T08:45:14.552Z,-1.25
2023-01-19T08:47:41.521Z,-1.29
2023-01-19T08:50:09.449Z,-1.40
2023-01-19T08:52:36.254Z,-1.46
2023-01-19T08:55:03.052Z,-1.79
2023-01-19T08:57:29.935Z,-1.22
2023-01-19T08:59:56.847Z,-1.46
2023-01-19T09:02:23.776Z,-1.66
2023-01-19T09:04:50.669Z,-1.19
2023-01-19T09:07:18.943Z,-0.98
2023-01-19T09:09:47.346Z,-0.76
2023-01-19T09:12:14.581Z,-0.54
2023-01-19T09:14:41.371Z,-0.52
2023-01-19T09:17:08.102Z,-0.36
2023-01-19T09:19:35.185Z,-0.28
2023-01-19T09:22:02.003Z,-0.25
2023-01-19T09:24:28.874Z,-0.13
2023-01-19T09:26:55.859Z,0.11
2023-01-19T09:29:22.886Z,0.07
2023-01-19T09:31:49.803Z,0.36
2023-01-19T09:34:16.620Z,0.37
2023-01-19T09:36:43.490Z,0.47
2023-01-19T09:39:11.196Z,0.47
2023-01-19T09:41:40.031Z,0.51
2023-01-19T09:44:09.589Z,0.67
2023-01-19T09:46:42.915Z,0.72
2023-01-19T09:49:15.893Z,0.72
2023-01-19T09:51:48.862Z,0.78
2023-01-19T09:54:24.106Z,0.68
2023-01-19T09:56:52.944Z,0.68
2023-01-19T09:59:25.269Z,0.98
2023-01-19T10:02:17.722Z,1.13
2023-01-19T10:05:02.696Z,1.27
2023-01-19T10:08:08.785Z,1.53
2023-01-19T10:10:37.671Z,1.70
2023-01-19T10:13:33.330Z,1.79
2023-01-19T10:16:25.016Z,2.04
2023-01-19T10:18:57.307Z,2.15
2023-01-19T10:21:38.947Z,2.36
2023-01-19T10:24:49.075Z,2.45
2023-01-19T10:27:24.362Z,2.51
2023-01-19T10:29:51.838Z,2.59
2023-01-19T10:32:31.077Z,2.67
2023-01-19T10:34:59.687Z,2.67
2023-01-19T10:37:32.814Z,2.75
2023-01-19T10:40:25.617Z,2.96
2023-01-19T10:42:52.410Z,3.00
2023-01-19T10:45:31.580Z,3.09
2023-01-19T10:48:05.467Z,3.15
2023-01-19T10:50:33.920Z,3.22
2023-01-19T10:53:06.103Z,3.28
2023-01-19T10:55:39.870Z,3.39
2023-01-19T10:58:26.755Z,3.44
2023-01-19T11:00:54.015Z,3.26
2023-01-19T11:03:31.983Z,3.32
2023-01-19T11:06:14.048Z,3.34
2023-01-19T11:08:41.462Z,3.38
2023-01-19T11:11:09.259Z,3.66
2023-01-19T11:13:36.885Z,3.79
2023-01-19T11:16:26.290Z,3.76
2023-01-19T11:18:54.984Z,3.87
2023-01-19T11:21:28.133Z,3.95
2023-01-19T11:24:05.655Z,4.13
2023-01-19T11:26:42.882Z,4.06
2023-01-19T11:29:26.291Z,4.12
2023-01-19T11:31:55.165Z,4.10
2023-01-19T11:34:40.010Z,4.22
2023-01-19T11:37:27.911Z,4.11
2023-01-19T11:39:57.880Z,4.25
2023-01-19T11:42:26.959Z,4.19
2023-01-19T11:44:56.538Z,4.24
2023-01-19T11:47:38.619Z,4.10
2023-01-19T11:50:05.560Z,4.33
2023-01-19T11:52:43.206Z,4.36
2023-01-19T11:55:17.701Z,4.36
2023-01-19T11:57:51.967Z,4.36
2023-01-19T12:00:25.604Z,4.28
2023-01-19T12:03:19.372Z,4.37
2023-01-19T12:05:51.269Z,4.35
2023-01-19T12:08:27.104Z,4.37
2023-01-19T12:10:57.838Z,4.54
2023-01-19T12:13:28.867Z,4.64
2023-01-19T12:16:06.056Z,4.68
2023-01-19T13:09:33.627Z,6.50
2023-01-19T13:17:44.487Z,6.71
2023-01-19T13:20:17.450Z,6.73
2023-01-19T13:22:50.297Z,6.60
2023-01-19T13:25:35.754Z,6.82
2023-01-19T13:28:07.245Z,6.87
2023-01-19T13:30:35.531Z,6.74
2023-01-19T13:33:16.672Z,6.82
2023-01-19T13:35:53.708Z,6.54
2023-01-19T13:38:22.345Z,6.81
2023-01-19T13:40:49.714Z,6.81
2023-01-19T13:43:22.147Z,6.82
2023-01-19T13:45:53.450Z,6.76
2023-01-19T13:48:24.277Z,6.94
2023-01-19T13:51:00.497Z,7.08
2023-01-19T13:53:27.855Z,7.12
2023-01-19T13:56:09.778Z,7.18
2023-01-19T13:58:36.760Z,7.24
2023-01-19T14:01:03.584Z,7.24
2023-01-19T14:03:30.619Z,7.19
2023-01-19T14:05:57.610Z,7.11
2023-01-19T14:08:25.811Z,6.94
2023-01-19T14:10:56.450Z,7.20
2023-01-19T14:13:26.396Z,7.22
2023-01-19T14:15:56.803Z,7.19
2023-01-19T14:18:27.093Z,7.04
2023-01-19T14:20:53.837Z,7.19
2023-01-19T14:23:39.020Z,7.15
2023-01-19T14:26:07.216Z,7.22
